Time;durP1;ratioP1;P1;durP2;ratioP2;P2;SDS_P1;SDS_P2;PMS_P1;PMS_P2;Temp;Humidity;BMP_temperature;BMP_pressure;BME280_temperature;BME280_humidity;BME280_pressure;Samples;Min_cycle;Max_cycle;Signal;HPM_P1;HPM_P2
2022/08/27 00:00:27;;;;;;;9.95;5.60;;;19.20;75.70;;;;;;5094982;28;20036;-78
2022/08/27 00:02:52;;;;;;;10.38;5.35;;;19.10;75.60;;;;;;5096694;28;20024;-76
2022/08/27 00:05:19;;;;;;;13.68;6.18;;;19.10;78.10;;;;;;5095113;28;20020;-78
2022/08/27 00:07:46;;;;;;;12.38;6.82;;;19.00;77.70;;;;;;5096683;28;20103;-78
2022/08/27 00:10:19;;;;;;;9.73;5.90;;;19.00;77.60;;;;;;5094989;28;20046;-78
2022/08/27 00:12:47;;;;;;;13.18;5.65;;;18.90;76.70;;;;;;5096789;28;20059;-75
2022/08/27 00:15:14;;;;;;;13.60;6.80;;;18.90;75.20;;;;;;5095035;28;20469;-78
2022/08/27 00:17:41;;;;;;;13.98;6.10;;;18.90;74.20;;;;;;5095112;28;20024;-75
2022/08/27 00:20:07;;;;;;;8.70;6.07;;;19.00;74.10;;;;;;5094540;28;20413;-78
2022/08/27 00:22:33;;;;;;;9.77;5.90;;;18.90;74.10;;;;;;5094975;28;20012;-78
2022/08/27 00:25:00;;;;;;;14.57;6.18;;;19.00;74.00;;;;;;5094705;28;20020;-78
2022/08/27 00:28:15;;;;;;;10.15;6.30;;;19.00;73.50;;;;;;5094827;28;20031;-75
2022/08/27 00:30:41;;;;;;;9.68;6.38;;;19.00;75.10;;;;;;5094591;28;20028;-78
2022/08/27 00:33:06;;;;;;;7.75;5.30;;;18.90;78.30;;;;;;5096237;28;20527;-79
2022/08/27 00:35:32;;;;;;;14.88;6.43;;;18.90;78.90;;;;;;5094514;28;20020;-79
2022/08/27 00:37:58;;;;;;;7.88;6.00;;;18.90;78.20;;;;;;5094775;28;20028;-79
2022/08/27 00:40:24;;;;;;;9.10;5.88;;;18.80;77.90;;;;;;5095800;28;20036;-79
2022/08/27 00:42:50;;;;;;;10.90;5.82;;;18.80;78.60;;;;;;5094780;28;20061;-76
2022/08/27 00:45:19;;;;;;;7.00;5.28;;;18.70;80.30;;;;;;5094350;28;20023;-79
2022/08/27 00:47:53;;;;;;;7.65;5.85;;;18.60;80.90;;;;;;5095915;28;20028;-76
2022/08/27 00:50:51;;;;;;;13.40;6.50;;;18.60;83.20;;;;;;5094220;28;20013;-75
2022/08/27 00:53:22;;;;;;;12.88;6.38;;;18.50;84.40;;;;;;5089407;28;20394;-79
2022/08/27 00:56:08;;;;;;;9.70;6.13;;;18.40;88.00;;;;;;5095623;28;20030;-79
2022/08/27 00:58:38;;;;;;;11.07;6.45;;;18.30;88.90;;;;;;5094313;28;20027;-78
2022/08/27 01:01:07;;;;;;;16.10;7.13;;;18.20;90.90;;;;;;5095305;28;20040;-75
2022/08/27 01:03:34;;;;;;;11.52;6.47;;;18.10;92.80;;;;;;5094295;28;20020;-79
2022/08/27 01:06:01;;;;;;;11.15;5.93;;;18.00;94.20;;;;;;5095255;28;20478;-79
2022/08/27 01:08:32;;;;;;;11.10;6.88;;;18.00;95.40;;;;;;5095432;28;20024;-76
2022/08/27 01:10:59;;;;;;;8.95;6.43;;;18.00;95.90;;;;;;5093982;28;20035;-75
2022/08/27 01:13:28;;;;;;;15.40;7.20;;;17.90;96.10;;;;;;5094069;28;20024;-80
2022/08/27 01:15:57;;;;;;;13.60;5.93;;;17.90;95.20;;;;;;5095028;28;20544;-76
2022/08/27 01:18:25;;;;;;;10.55;6.18;;;17.90;90.40;;;;;;5095337;28;20046;-78
2022/08/27 01:21:01;;;;;;;10.57;6.70;;;17.90;89.60;;;;;;5093611;28;20044;-76
2022/08/27 01:23:56;;;;;;;8.13;5.93;;;17.90;89.10;;;;;;5093930;28;20019;-76
2022/08/27 01:26:22;;;;;;;10.23;5.82;;;17.90;88.70;;;;;;5094857;28;20031;-76
2022/08/27 01:28:48;;;;;;;9.05;6.45;;;17.90;86.90;;;;;;5093958;28;20042;-78
2022/08/27 01:31:14;;;;;;;7.47;5.63;;;18.00;86.90;;;;;;5094856;28;20115;-76
2022/08/27 01:33:51;;;;;;;7.00;5.93;;;18.00;86.40;;;;;;5093685;28;20099;-76
2022/08/27 01:36:17;;;;;;;9.95;5.80;;;18.00;87.00;;;;;;5094496;28;20020;-79
2022/08/27 01:38:42;;;;;;;11.13;5.63;;;18.00;85.50;;;;;;5094575;28;20073;-76
2022/08/27 01:41:08;;;;;;;10.98;6.28;;;18.10;83.50;;;;;;5093666;28;20581;-77
2022/08/27 01:43:34;;;;;;;9.30;6.18;;;18.10;83.50;;;;;;5093390;28;20093;-76
2022/08/27 01:45:59;;;;;;;11.88;6.05;;;18.10;82.10;;;;;;5093245;28;20020;-76
2022/08/27 01:48:25;;;;;;;10.23;5.97;;;18.10;81.60;;;;;;5093397;28;20035;-76
2022/08/27 01:50:51;;;;;;;7.22;5.35;;;18.10;82.60;;;;;;5093124;28;20027;-76
2022/08/27 01:53:22;;;;;;;7.35;5.40;;;18.10;83.60;;;;;;5094615;28;20062;-78
2022/08/27 01:55:50;;;;;;;9.68;5.85;;;18.10;85.00;;;;;;5093092;28;20412;-76
2022/08/27 01:58:18;;;;;;;8.30;5.60;;;18.00;84.90;;;;;;5094573;28;20362;-76
2022/08/27 02:00:47;;;;;;;8.73;5.50;;;18.10;85.30;;;;;;5092964;28;20032;-78
2022/08/27 02:03:17;;;;;;;6.90;4.50;;;18.00;86.20;;;;;;5094296;28;20051;-76
2022/08/27 02:05:44;;;;;;;10.27;5.38;;;18.00;85.40;;;;;;5092491;28;20055;-76
2022/08/27 02:08:10;;;;;;;7.40;5.35;;;18.10;83.20;;;;;;5093088;28;20110;-75
2022/08/27 02:10:38;;;;;;;6.50;5.57;;;18.10;85.00;;;;;;5094035;28;20054;-78
2022/08/27 02:13:05;;;;;;;8.88;6.60;;;18.00;87.60;;;;;;5092982;28;20016;-78
2022/08/27 02:15:33;;;;;;;8.93;6.40;;;18.00;89.00;;;;;;5094006;28;20043;-76
2022/08/27 02:17:59;;;;;;;13.43;7.30;;;18.00;90.10;;;;;;5094249;28;20032;-75
2022/08/27 02:20:25;;;;;;;8.25;6.60;;;17.90;91.80;;;;;;5093667;28;20409;-76
2022/08/27 02:22:51;;;;;;;10.15;5.90;;;17.90;91.10;;;;;;5092741;28;20012;-76
2022/08/27 02:25:19;;;;;;;8.80;5.22;;;17.80;91.40;;;;;;5092414;28;20493;-76
2022/08/27 02:27:45;;;;;;;6.68;5.53;;;17.70;92.30;;;;;;5092723;28;20024;-75
2022/08/27 02:30:13;;;;;;;9.05;6.32;;;17.70;93.60;;;;;;5092444;28;20020;-77
2022/08/27 02:32:38;;;;;;;12.98;7.18;;;17.60;93.90;;;;;;5094008;28;20540;-76
2022/08/27 02:35:05;;;;;;;8.23;5.97;;;17.50;95.50;;;;;;5092227;28;20063;-77
2022/08/27 02:37:31;;;;;;;8.20;6.32;;;17.40;95.70;;;;;;5093707;28;20024;-76
2022/08/27 02:39:56;;;;;;;11.45;7.25;;;17.40;96.10;;;;;;5092096;28;20062;-77
2022/08/27 02:42:22;;;;;;;10.48;6.03;;;17.30;97.50;;;;;;5092751;28;20028;-78
2022/08/27 02:44:48;;;;;;;10.57;6.68;;;17.20;99.30;;;;;;5093340;28;20108;-76
2022/08/27 02:47:15;;;;;;;10.73;6.60;;;17.10;99.90;;;;;;5093829;28;20058;-79
2022/08/27 02:49:41;;;;;;;11.35;6.47;;;17.00;99.90;;;;;;5093286;28;20016;-76
2022/08/27 02:52:07;;;;;;;8.32;6.55;;;17.00;99.90;;;;;;5093571;28;20031;-76
2022/08/27 02:54:33;;;;;;;11.85;6.63;;;16.90;99.90;;;;;;5093251;28;20012;-78
2022/08/27 02:56:59;;;;;;;20.52;7.55;;;16.90;99.90;;;;;;5093590;28;20085;-76
2022/08/27 02:59:24;;;;;;;18.67;7.13;;;16.80;99.90;;;;;;5091686;28;20470;-78
2022/08/27 03:01:50;;;;;;;8.98;6.20;;;16.80;99.90;;;;;;5092178;28;20028;-76
2022/08/27 03:04:18;;;;;;;13.98;6.63;;;16.90;99.90;;;;;;5092212;28;20027;-76
2022/08/27 03:06:44;;;;;;;9.68;6.18;;;16.80;99.90;;;;;;5093497;28;20050;-78
2022/08/27 03:09:10;;;;;;;8.27;6.25;;;16.90;99.90;;;;;;5093441;28;20024;-78
2022/08/27 03:11:36;;;;;;;9.10;6.68;;;16.90;99.90;;;;;;5092279;28;20366;-78
2022/08/27 03:14:01;;;;;;;9.93;6.28;;;16.90;99.90;;;;;;5092073;28;20113;-76
2022/08/27 03:16:27;;;;;;;9.23;5.85;;;16.90;99.90;;;;;;5093229;28;20028;-78
2022/08/27 03:18:53;;;;;;;12.25;6.97;;;16.90;99.90;;;;;;5091775;28;20361;-78
2022/08/27 03:21:23;;;;;;;12.10;7.25;;;16.90;99.90;;;;;;5093214;28;20382;-78
2022/08/27 03:23:49;;;;;;;10.07;5.50;;;16.90;99.90;;;;;;5093231;28;20542;-75
2022/08/27 03:26:15;;;;;;;6.85;5.57;;;16.80;99.90;;;;;;5092056;28;20021;-78
2022/08/27 03:28:41;;;;;;;8.90;6.50;;;16.80;99.90;;;;;;5093647;28;20020;-75
2022/08/27 03:31:14;;;;;;;13.40;7.95;;;16.80;99.90;;;;;;5091984;28;20024;-76
2022/08/27 03:33:39;;;;;;;;;;;16.80;99.90;;;;;;5092230;28;20377;-78
2022/08/27 03:36:07;;;;;;;9.35;5.80;;;16.80;99.90;;;;;;5093195;28;19908;-75
2022/08/27 03:38:33;;;;;;;7.82;6.40;;;16.90;99.90;;;;;;5091903;28;20051;-75
2022/08/27 03:41:00;;;;;;;7.32;6.07;;;16.90;99.90;;;;;;5093369;28;20035;-77
2022/08/27 03:43:26;;;;;;;8.35;5.72;;;16.90;99.90;;;;;;5091828;28;20099;-75
2022/08/27 03:45:52;;;;;;;11.10;6.65;;;16.90;99.90;;;;;;5091823;28;20055;-75
2022/08/27 03:48:18;;;;;;;10.73;6.55;;;16.90;99.90;;;;;;5091705;28;20029;-75
2022/08/27 03:50:46;;;;;;;9.68;6.75;;;16.90;99.90;;;;;;5092931;28;20385;-78
2022/08/27 03:53:13;;;;;;;8.85;6.28;;;16.90;99.90;;;;;;5091978;28;20043;-75
2022/08/27 03:55:41;;;;;;;7.45;6.00;;;16.90;99.90;;;;;;5093117;28;20058;-78
2022/08/27 03:58:08;;;;;;;8.30;6.38;;;17.00;99.90;;;;;;5092948;28;20020;-75
2022/08/27 04:00:34;;;;;;;10.70;6.50;;;17.00;99.90;;;;;;5091398;28;20024;-75
2022/08/27 04:02:59;;;;;;;9.10;6.00;;;17.00;99.90;;;;;;5093285;28;20028;-75
2022/08/27 04:05:25;;;;;;;8.13;6.03;;;17.00;99.90;;;;;;5092849;28;20028;-75
2022/08/27 04:07:51;;;;;;;9.85;6.20;;;17.10;99.90;;;;;;5092763;28;20489;-74
2022/08/27 04:10:17;;;;;;;7.43;6.57;;;17.10;99.90;;;;;;5092712;28;20534;-78
2022/08/27 04:12:43;;;;;;;8.43;5.63;;;17.10;99.90;;;;;;5092912;28;20043;-79
2022/08/27 04:15:11;;;;;;;6.97;5.93;;;17.10;99.90;;;;;;5091419;28;20473;-75
2022/08/27 04:17:37;;;;;;;7.63;6.15;;;17.10;99.90;;;;;;5091415;28;20363;-78
2022/08/27 04:20:04;;;;;;;8.85;6.15;;;17.20;99.90;;;;;;5091294;28;20425;-75
2022/08/27 04:22:30;;;;;;;8.95;6.18;;;17.20;99.90;;;;;;5084861;28;20031;-78
2022/08/27 04:24:56;;;;;;;10.75;6.25;;;17.30;99.90;;;;;;5071211;28;20418;-75
2022/08/27 04:27:24;;;;;;;9.32;6.28;;;17.30;99.90;;;;;;5072567;28;20024;-78
2022/08/27 04:29:53;;;;;;;9.38;6.40;;;17.30;99.90;;;;;;5075053;28;20025;-78
2022/08/27 04:32:19;;;;;;;7.35;5.50;;;17.40;99.90;;;;;;5074721;28;21715;-75
2022/08/27 04:34:45;;;;;;;8.23;5.97;;;17.40;99.90;;;;;;5076062;28;20025;-76
2022/08/27 04:37:10;;;;;;;10.82;6.45;;;17.50;99.90;;;;;;5075904;28;20486;-77
2022/08/27 04:39:36;;;;;;;7.70;6.00;;;17.60;99.90;;;;;;5074614;28;20028;-77
2022/08/27 04:42:02;;;;;;;8.20;6.55;;;17.60;99.90;;;;;;5074574;28;20023;-75
2022/08/27 04:44:32;;;;;;;7.70;6.68;;;17.70;99.00;;;;;;5094087;28;20016;-78
2022/08/27 04:47:01;;;;;;;10.27;6.88;;;17.90;96.60;;;;;;5095972;28;20553;-75
2022/08/27 04:49:27;;;;;;;11.00;7.50;;;18.00;94.30;;;;;;5094470;28;20053;-78
2022/08/27 04:51:54;;;;;;;19.52;8.75;;;18.10;93.50;;;;;;5096146;28;20032;-75
2022/08/27 04:54:19;;;;;;;13.80;7.78;;;18.30;91.50;;;;;;5094412;28;20016;-75
2022/08/27 04:56:45;;;;;;;9.60;7.70;;;18.40;88.60;;;;;;5096028;28;20013;-75
2022/08/27 04:59:11;;;;;;;8.50;7.38;;;18.50;85.80;;;;;;5095633;28;20031;-77
2022/08/27 05:01:39;;;;;;;11.38;7.80;;;18.70;84.50;;;;;;5095853;28;20111;-76
2022/08/27 05:04:05;;;;;;;10.82;7.07;;;18.80;82.90;;;;;;5095760;28;20020;-75
2022/08/27 05:06:32;;;;;;;10.52;7.65;;;19.00;82.30;;;;;;5095551;28;20065;-78
2022/08/27 05:08:57;;;;;;;14.05;7.68;;;19.10;81.80;;;;;;5095728;28;20031;-76
2022/08/27 05:11:30;;;;;;;11.65;8.75;;;19.20;80.80;;;;;;5094187;28;20024;-76
2022/08/27 05:13:57;;;;;;;10.70;7.57;;;19.30;81.80;;;;;;5094575;28;20028;-76
2022/08/27 05:16:24;;;;;;;18.38;7.97;;;19.40;81.00;;;;;;5095454;28;20016;-78
2022/08/27 05:18:51;;;;;;;10.07;7.78;;;19.50;83.10;;;;;;5094593;28;20148;-78
2022/08/27 05:21:27;;;;;;;11.63;7.40;;;19.60;84.20;;;;;;5095217;28;20035;-78
2022/08/27 05:23:55;;;;;;;10.40;7.88;;;19.70;83.10;;;;;;5094036;28;20026;-76
2022/08/27 05:26:21;;;;;;;13.35;7.70;;;19.70;81.50;;;;;;5093275;28;20016;-78
2022/08/27 05:28:47;;;;;;;8.70;7.60;;;19.90;80.50;;;;;;5094750;28;20107;-78
2022/08/27 05:31:13;;;;;;;12.52;7.43;;;19.90;79.70;;;;;;5093419;28;20055;-76
2022/08/27 05:33:40;;;;;;;12.88;7.90;;;20.00;78.70;;;;;;5093177;28;20020;-76
2022/08/27 05:36:07;;;;;;;9.23;7.70;;;20.20;78.90;;;;;;5093626;28;20028;-76
2022/08/27 05:38:33;;;;;;;7.90;7.10;;;20.30;78.00;;;;;;5093601;28;20058;-76
2022/08/27 05:41:07;;;;;;;13.07;8.10;;;20.40;76.80;;;;;;5093522;28;20043;-76
2022/08/27 05:43:34;;;;;;;15.90;8.05;;;20.50;77.00;;;;;;5093332;28;20058;-76
2022/08/27 05:46:04;;;;;;;11.52;7.63;;;20.60;75.80;;;;;;5094802;28;20028;-76
2022/08/27 05:48:31;;;;;;;13.70;7.90;;;20.70;75.40;;;;;;5092700;28;20024;-76
2022/08/27 05:50:56;;;;;;;12.63;7.30;;;20.90;74.30;;;;;;5093309;28;20021;-79
2022/08/27 05:53:22;;;;;;;10.30;6.25;;;21.00;74.90;;;;;;5094599;28;20024;-76
2022/08/27 05:55:48;;;;;;;9.68;7.82;;;21.20;73.70;;;;;;5094487;28;20028;-76
2022/08/27 06:01:05;;;;;;;10.60;6.47;;;21.50;70.70;;;;;;5094509;28;20046;-75
2022/08/27 06:03:36;;;;;;;11.10;7.75;;;21.70;69.60;;;;;;5092677;28;20036;-76
2022/08/27 06:06:04;;;;;;;13.38;7.47;;;21.80;69.00;;;;;;5093122;28;20020;-76
2022/08/27 06:08:30;;;;;;;12.68;7.70;;;22.00;68.50;;;;;;5088129;28;20039;-76
2022/08/27 06:10:56;;;;;;;10.48;7.03;;;22.10;67.80;;;;;;5071988;28;20024;-79
2022/08/27 06:13:22;;;;;;;12.60;7.65;;;22.20;67.90;;;;;;5072610;28;20031;-76
2022/08/27 06:15:48;;;;;;;13.77;8.25;;;22.40;67.60;;;;;;5072327;28;20025;-77
2022/08/27 06:18:14;;;;;;;11.30;8.27;;;22.60;66.50;;;;;;5072095;28;20032;-77
2022/08/27 06:20:40;;;;;;;16.13;8.05;;;22.70;66.70;;;;;;5071764;28;20559;-76
2022/08/27 06:23:05;;;;;;;14.07;8.93;;;22.90;66.50;;;;;;5084127;28;20028;-78
2022/08/27 06:25:32;;;;;;;10.85;8.07;;;23.00;65.70;;;;;;5093584;28;20433;-76
2022/08/27 06:27:58;;;;;;;10.75;7.75;;;23.10;66.50;;;;;;5093610;28;20027;-77
2022/08/27 06:30:24;;;;;;;11.82;7.45;;;23.30;66.50;;;;;;5092184;28;20538;-77
2022/08/27 06:32:50;;;;;;;9.07;7.25;;;23.50;63.10;;;;;;5092712;28;20066;-79
2022/08/27 06:35:17;;;;;;;9.10;6.70;;;23.60;62.20;;;;;;5093421;28;20059;-80
2022/08/27 06:37:42;;;;;;;9.25;7.05;;;23.70;62.90;;;;;;5093734;28;20024;-76
2022/08/27 06:40:09;;;;;;;10.55;6.35;;;23.90;62.50;;;;;;5084817;28;20040;-78
2022/08/27 06:42:38;;;;;;;9.20;6.88;;;23.90;60.90;;;;;;5076988;28;20012;-77
2022/08/27 06:45:04;;;;;;;9.02;6.82;;;24.10;60.80;;;;;;5093408;28;20017;-79
2022/08/27 06:47:31;;;;;;;9.15;7.10;;;24.20;61.60;;;;;;5093049;28;20385;-76
2022/08/27 06:49:57;;;;;;;9.85;6.80;;;24.30;61.60;;;;;;5092730;28;20031;-76
2022/08/27 06:52:23;;;;;;;11.35;7.35;;;24.50;59.90;;;;;;5092988;28;20381;-78
2022/08/27 06:54:49;;;;;;;15.00;7.72;;;24.60;60.40;;;;;;5091943;28;20046;-77
2022/08/27 06:57:15;;;;;;;11.70;7.38;;;24.80;61.80;;;;;;5083386;28;20027;-77
2022/08/27 06:59:41;;;;;;;11.88;8.52;;;24.90;60.90;;;;;;5092100;28;20114;-81
2022/08/27 07:02:07;;;;;;;9.80;6.82;;;25.00;59.90;;;;;;5088839;28;20118;-80
2022/08/27 07:04:32;;;;;;;8.90;6.57;;;25.10;58.70;;;;;;5098402;28;20024;-80
2022/08/27 07:06:59;;;;;;;8.80;7.13;;;25.20;59.20;;;;;;5084500;28;20043;-80
2022/08/27 07:09:25;;;;;;;11.35;6.60;;;25.30;58.70;;;;;;5092957;28;20059;-81
2022/08/27 07:11:51;;;;;;;9.38;7.10;;;25.40;58.10;;;;;;5092983;28;20020;-81
2022/08/27 07:14:17;;;;;;;9.15;6.18;;;25.50;58.50;;;;;;5102529;28;20098;-80
2022/08/27 07:16:43;;;;;;;9.63;6.65;;;25.60;57.60;;;;;;5092448;28;20024;-80
2022/08/27 07:19:09;;;;;;;8.27;7.43;;;25.70;57.40;;;;;;5092561;28;20044;-80
2022/08/27 07:21:35;;;;;;;9.93;6.80;;;25.80;56.90;;;;;;5091828;28;20519;-80
2022/08/27 07:24:05;;;;;;;11.88;7.18;;;25.80;57.20;;;;;;5092806;28;20020;-80
2022/08/27 07:26:33;;;;;;;22.90;7.68;;;25.90;56.10;;;;;;5086498;28;20114;-80
2022/08/27 07:28:59;;;;;;;9.38;6.60;;;26.00;57.40;;;;;;5092984;28;20035;-81
2022/08/27 07:31:25;;;;;;;9.27;6.72;;;26.20;58.20;;;;;;5091985;28;20031;-80
2022/08/27 07:33:51;;;;;;;13.82;6.78;;;26.30;56.30;;;;;;5092190;28;20381;-81
2022/08/27 07:36:17;;;;;;;11.20;6.40;;;26.40;55.00;;;;;;5091934;28;20045;-79
2022/08/27 07:38:42;;;;;;;11.85;6.60;;;26.50;55.90;;;;;;5092719;28;20377;-79
2022/08/27 07:41:11;;;;;;;12.05;6.75;;;26.70;56.40;;;;;;5091877;28;20180;-80
2022/08/27 07:46:22;;;;;;;7.88;6.30;;;27.00;55.20;;;;;;5091839;28;20076;-79
2022/08/27 07:48:49;;;;;;;7.95;6.85;;;27.10;56.50;;;;;;5092166;28;20024;-79
2022/08/27 07:51:17;;;;;;;8.20;6.68;;;27.20;56.90;;;;;;5091959;28;20105;-80
2022/08/27 07:53:44;;;;;;;6.75;6.03;;;27.30;56.30;;;;;;5079306;28;20162;-81
2022/08/27 07:56:11;;;;;;;10.98;5.70;;;27.40;54.70;;;;;;5091764;28;20020;-81
2022/08/27 07:58:37;;;;;;;9.27;6.10;;;27.40;54.20;;;;;;5091135;28;20107;-80
2022/08/27 08:01:02;;;;;;;12.63;6.45;;;27.60;53.50;;;;;;5083595;28;20166;-81
2022/08/27 08:03:28;;;;;;;9.15;6.43;;;27.60;51.00;;;;;;5093150;28;20461;-80
2022/08/27 08:05:56;;;;;;;12.43;6.28;;;27.60;50.00;;;;;;5082439;28;20463;-81
2022/08/27 08:08:25;;;;;;;7.30;5.82;;;27.70;49.70;;;;;;5095261;28;20016;-80
2022/08/27 08:10:50;;;;;;;12.27;6.45;;;27.80;48.20;;;;;;5095085;28;20442;-81
2022/08/27 08:13:17;;;;;;;9.05;6.32;;;27.90;48.50;;;;;;5093660;28;20024;-81
2022/08/27 08:15:45;;;;;;;12.40;6.00;;;28.00;48.60;;;;;;5092356;28;20085;-81
2022/08/27 08:18:10;;;;;;;18.55;6.72;;;28.10;46.70;;;;;;5094931;28;20091;-81
2022/08/27 08:20:36;;;;;;;13.77;6.18;;;28.10;46.90;;;;;;5084958;28;20155;-81
2022/08/27 08:23:02;;;;;;;13.23;6.65;;;28.00;45.70;;;;;;5095178;28;20090;-81
2022/08/27 08:25:28;;;;;;;12.18;5.95;;;28.10;45.40;;;;;;5095345;28;20465;-81
2022/08/27 08:27:54;;;;;;;20.63;6.57;;;28.20;47.00;;;;;;5093215;28;20024;-81
2022/08/27 08:30:20;;;;;;;15.07;6.30;;;28.30;46.30;;;;;;5093482;28;20023;-80
2022/08/27 08:32:46;;;;;;;11.13;6.00;;;28.40;45.50;;;;;;5093728;28;20131;-80
2022/08/27 08:35:13;;;;;;;14.50;6.68;;;28.50;46.50;;;;;;5095683;28;20099;-79
2022/08/27 08:37:41;;;;;;;9.88;7.63;;;28.60;45.40;;;;;;5090504;28;20059;-80
2022/08/27 08:40:08;;;;;;;14.20;7.95;;;28.50;53.50;;;;;;5087833;28;20055;-80
2022/08/27 08:42:54;;;;;;;10.07;8.10;;;28.40;54.80;;;;;;5090382;28;20020;-80
2022/08/27 08:45:25;;;;;;;11.43;8.57;;;28.20;55.40;;;;;;5075154;28;20043;-80
2022/08/27 08:47:58;;;;;;;14.90;7.97;;;28.10;56.70;;;;;;5076264;28;20073;-81
2022/08/27 08:50:49;;;;;;;14.05;9.48;;;28.00;59.30;;;;;;5075717;28;20012;-80
2022/08/27 08:53:41;;;;;;;12.88;8.32;;;27.80;58.50;;;;;;5092744;28;20462;-79
2022/08/27 08:56:17;;;;;;;11.13;7.78;;;27.90;59.70;;;;;;5094292;28;20093;-79
2022/08/27 08:58:46;;;;;;;13.70;9.05;;;27.80;57.00;;;;;;5094772;28;20020;-80
2022/08/27 09:01:14;;;;;;;15.90;8.55;;;28.10;57.90;;;;;;5094591;28;20036;-81
2022/08/27 09:03:43;;;;;;;12.10;7.45;;;28.10;57.10;;;;;;5094590;28;20024;-81
2022/08/27 09:06:36;;;;;;;15.57;7.68;;;28.10;54.40;;;;;;5094601;28;20020;-81
2022/08/27 09:09:20;;;;;;;10.55;7.43;;;28.20;53.70;;;;;;5092063;28;20055;-83
2022/08/27 09:11:58;;;;;;;13.45;8.05;;;28.20;54.70;;;;;;5093220;28;20507;-80
2022/08/27 09:15:09;;;;;;;11.30;7.30;;;28.40;54.40;;;;;;5082316;28;20048;-80
2022/08/27 09:17:35;;;;;;;11.27;6.88;;;28.50;53.70;;;;;;5091120;28;20035;-79
2022/08/27 09:20:02;;;;;;;9.55;7.32;;;28.60;53.10;;;;;;5094373;28;20056;-79
2022/08/27 09:22:52;;;;;;;11.88;7.07;;;28.60;51.70;;;;;;5094510;28;20024;-80
2022/08/27 09:25:27;;;;;;;10.48;7.32;;;28.70;49.70;;;;;;5085698;28;20059;-81
2022/08/27 09:27:56;;;;;;;14.13;6.55;;;28.90;49.70;;;;;;5085637;28;20396;-81
2022/08/27 09:30:30;;;;;;;15.80;7.70;;;29.00;48.50;;;;;;5081150;28;20079;-81
2022/08/27 09:32:59;;;;;;;14.18;6.35;;;29.10;48.10;;;;;;5072527;28;20131;-81
2022/08/27 09:35:33;;;;;;;10.00;6.43;;;29.20;47.30;;;;;;5082082;28;20491;-81
2022/08/27 09:38:01;;;;;;;10.93;6.65;;;29.30;46.50;;;;;;5093012;28;20537;-81
2022/08/27 09:40:40;;;;;;;13.10;6.78;;;29.40;46.40;;;;;;5093876;28;20042;-81
2022/08/27 09:43:27;;;;;;;17.00;6.25;;;29.40;46.80;;;;;;5089725;28;20016;-81
2022/08/27 09:46:16;;;;;;;15.10;6.25;;;29.40;47.50;;;;;;5073097;28;20488;-81
2022/08/27 09:48:42;;;;;;;12.50;6.60;;;29.30;45.00;;;;;;5074091;28;20025;-81
2022/08/27 09:51:20;;;;;;;12.68;6.30;;;29.20;44.60;;;;;;5073969;28;20032;-81
2022/08/27 09:53:54;;;;;;;16.10;6.43;;;29.30;45.90;;;;;;5073958;28;20540;-81
2022/08/27 09:56:31;;;;;;;14.63;6.72;;;29.40;46.20;;;;;;5072603;28;20017;-81
2022/08/27 09:59:11;;;;;;;10.15;5.47;;;29.40;44.80;;;;;;5071378;28;20050;-81
2022/08/27 10:02:06;;;;;;;14.02;6.45;;;29.40;45.40;;;;;;5091111;28;20040;-81
2022/08/27 10:04:36;;;;;;;9.48;5.95;;;29.50;46.00;;;;;;5091980;28;20429;-81
2022/08/27 10:07:16;;;;;;;13.98;6.82;;;29.40;44.30;;;;;;5093560;28;20096;-81
2022/08/27 10:09:50;;;;;;;7.78;5.57;;;29.30;45.20;;;;;;5077966;28;20059;-82
2022/08/27 10:12:38;;;;;;;10.75;6.40;;;29.50;46.40;;;;;;5084799;28;20021;-81
2022/08/27 10:15:10;;;;;;;15.57;6.40;;;29.60;45.70;;;;;;5090432;28;20040;-82
2022/08/27 10:17:57;;;;;;;16.67;5.90;;;29.70;44.60;;;;;;5093670;28;20019;-82
2022/08/27 10:20:47;;;;;;;10.23;5.70;;;29.70;44.00;;;;;;5093284;28;20048;-82
2022/08/27 10:23:36;;;;;;;11.43;5.75;;;29.70;42.60;;;;;;5079127;28;20017;-82
2022/08/27 10:26:11;;;;;;;10.55;5.57;;;29.80;41.90;;;;;;5072644;28;20028;-83
2022/08/27 10:28:56;;;;;;;8.95;5.25;;;29.90;40.90;;;;;;5072707;28;20096;-83
2022/08/27 10:31:52;;;;;;;10.80;5.00;;;30.00;43.10;;;;;;5072722;28;20115;-83
2022/08/27 10:34:29;;;;;;;9.82;5.88;;;30.10;42.50;;;;;;5086529;28;20222;-82
2022/08/27 10:37:12;;;;;;;13.05;5.28;;;30.20;42.10;;;;;;5093680;28;20466;-80
2022/08/27 10:40:12;;;;;;;10.13;5.65;;;30.20;43.20;;;;;;5092175;28;20024;-80
2022/08/27 10:42:47;;;;;;;15.35;5.75;;;30.10;43.00;;;;;;5093186;28;20506;-90
2022/08/27 10:45:22;;;;;;;13.07;4.50;;;30.00;42.50;;;;;;5093254;28;20012;-80
2022/08/27 10:48:23;;;;;;;13.65;5.35;;;30.10;41.00;;;;;;5092067;28;20035;-83
2022/08/27 10:50:54;;;;;;;12.98;5.00;;;30.20;41.30;;;;;;5092112;28;20016;-83
2022/08/27 10:53:43;;;;;;;11.88;5.28;;;30.20;40.20;;;;;;5091732;28;20020;-81
2022/08/27 10:56:29;;;;;;;11.73;5.32;;;30.10;39.80;;;;;;5092066;28;20028;-82
2022/08/27 10:59:21;;;;;;;8.30;4.63;;;30.20;40.80;;;;;;5090942;28;20016;-80
2022/08/27 11:02:17;;;;;;;9.57;4.70;;;30.20;40.40;;;;;;5089057;28;20032;-80
2022/08/27 11:04:50;;;;;;;12.05;4.40;;;30.20;38.90;;;;;;5092737;28;20051;-81
2022/08/27 11:07:28;;;;;;;20.40;4.65;;;30.20;39.40;;;;;;5092969;28;20081;-80
2022/08/27 11:10:17;;;;;;;11.95;5.28;;;30.20;40.30;;;;;;5091561;28;20027;-81
2022/08/27 11:12:46;;;;;;;8.20;5.15;;;30.20;40.60;;;;;;5090930;28;20385;-80
2022/08/27 11:15:29;;;;;;;13.63;5.07;;;30.30;41.10;;;;;;5091758;28;20036;-80
2022/08/27 11:18:05;;;;;;;11.50;5.07;;;30.30;40.40;;;;;;5094287;28;20393;-82
2022/08/27 11:20:40;;;;;;;17.50;5.65;;;30.10;40.00;;;;;;5092790;28;20090;-83
2022/08/27 11:23:15;;;;;;;10.52;4.82;;;30.20;40.10;;;;;;5086026;28;20021;-84
2022/08/27 11:26:11;;;;;;;10.85;5.07;;;30.10;40.10;;;;;;5082551;28;20043;-84
2022/08/27 11:28:42;;;;;;;10.05;5.45;;;30.20;40.60;;;;;;5091128;28;20089;-84
2022/08/27 11:31:11;;;;;;;12.67;6.77;;;30.30;44.40;;;;;;5091432;28;20489;-84
2022/08/27 11:33:52;;;;;;;12.45;7.60;;;30.50;48.00;;;;;;5090342;28;20057;-83
2022/08/27 11:36:21;;;;;;;10.15;7.30;;;30.20;47.90;;;;;;5091521;28;20508;-85
2022/08/27 11:38:57;;;;;;;12.13;7.57;;;30.20;48.50;;;;;;5090847;28;20483;-86
2022/08/27 11:42:01;;;;;;;11.35;6.75;;;30.10;48.10;;;;;;5093984;28;20036;-83
2022/08/27 11:44:27;;;;;;;8.07;6.72;;;30.20;49.50;;;;;;5089646;28;20032;-82
2022/08/27 11:46:57;;;;;;;8.95;6.80;;;30.00;47.90;;;;;;5096633;28;20442;-82
2022/08/27 11:49:25;;;;;;;11.55;7.03;;;30.00;48.80;;;;;;5096002;28;20028;-81
2022/08/27 11:52:01;;;;;;;11.13;7.38;;;29.90;48.80;;;;;;5094076;28;20485;-82
2022/08/27 11:54:30;;;;;;;9.45;7.28;;;30.10;49.40;;;;;;5095796;28;20027;-83
2022/08/27 11:56:56;;;;;;;13.23;7.32;;;30.20;48.50;;;;;;5095706;28;20017;-81
2022/08/27 11:59:25;;;;;;;10.35;7.55;;;30.30;49.40;;;;;;5094488;28;20027;-83
2022/08/27 12:01:52;;;;;;;15.02;7.40;;;30.40;49.70;;;;;;5094996;28;20036;-84
2022/08/27 12:04:29;;;;;;;11.07;7.68;;;30.30;47.20;;;;;;5094698;28;20492;-84
2022/08/27 12:07:29;;;;;;;12.07;8.40;;;30.20;47.60;;;;;;5096251;28;20032;-83
2022/08/27 12:09:55;;;;;;;11.52;7.90;;;30.00;49.40;;;;;;5096161;28;20498;-83
2022/08/27 12:12:24;;;;;;;12.10;8.45;;;30.00;50.40;;;;;;5095529;28;20067;-83
2022/08/27 12:15:03;;;;;;;11.05;8.35;;;30.00;50.70;;;;;;5094942;28;20008;-83
2022/08/27 12:17:48;;;;;;;18.52;9.02;;;30.10;50.60;;;;;;5091824;28;20115;-83
2022/08/27 12:20:42;;;;;;;11.30;8.95;;;30.20;50.40;;;;;;5091410;28;20059;-84
2022/08/27 12:23:38;;;;;;;14.15;7.93;;;30.10;49.60;;;;;;5093779;28;20089;-84
2022/08/27 12:26:24;;;;;;;10.68;8.20;;;30.00;50.20;;;;;;5094535;28;20077;-83
2022/08/27 12:28:50;;;;;;;9.23;6.38;;;29.90;50.70;;;;;;5096283;28;20400;-83
2022/08/27 12:31:21;;;;;;;9.68;6.65;;;30.20;49.40;;;;;;5095686;28;20520;-83
2022/08/27 12:33:50;;;;;;;12.48;6.72;;;30.20;44.90;;;;;;5096025;28;20020;-84
2022/08/27 12:36:21;;;;;;;16.08;6.65;;;30.30;43.80;;;;;;5095248;28;20023;-83
2022/08/27 12:38:52;;;;;;;9.67;6.13;;;30.40;44.00;;;;;;5095895;28;20020;-84
2022/08/27 12:41:31;;;;;;;7.80;6.30;;;30.50;44.40;;;;;;5094244;28;20032;-84
2022/08/27 12:44:09;;;;;;;13.30;6.85;;;30.60;45.00;;;;;;5095887;28;20020;-83
2022/08/27 12:46:51;;;;;;;10.32;6.85;;;30.40;44.50;;;;;;5074262;28;20103;-84
2022/08/27 12:49:19;;;;;;;;;;;30.30;43.50;;;;;;5075695;28;20052;-84
2022/08/27 12:51:45;;;;;;;10.00;6.25;;;30.30;44.80;;;;;;5095613;28;19904;-84
2022/08/27 12:54:35;;;;;;;10.15;6.20;;;30.30;44.90;;;;;;5095100;28;20077;-84
2022/08/27 12:57:30;;;;;;;10.32;6.22;;;30.20;45.50;;;;;;5095496;28;20028;-84
2022/08/27 13:00:13;;;;;;;8.77;5.05;;;30.20;44.80;;;;;;5095070;28;20117;-83
2022/08/27 13:03:20;;;;;;;8.45;6.50;;;30.30;42.80;;;;;;5095429;28;20481;-84
2022/08/27 13:05:49;;;;;;;12.18;5.60;;;30.30;41.50;;;;;;5094754;28;20041;-84